createdAt,value
2023-04-27T00:00:22.354Z,5.98
2023-04-27T00:03:25.118Z,5.92
2023-04-27T00:06:28.496Z,5.90
2023-04-27T00:09:31.032Z,5.86
2023-04-27T00:12:34.262Z,5.81
2023-04-27T00:15:36.876Z,5.71
2023-04-27T00:18:39.976Z,5.69
2023-04-27T00:21:42.492Z,5.61
2023-04-27T00:24:45.387Z,5.61
2023-04-27T00:27:48.084Z,5.58
2023-04-27T00:30:54.348Z,5.54
2023-04-27T00:33:56.913Z,5.51
2023-04-27T00:36:59.746Z,5.56
2023-04-27T00:40:05.156Z,5.52
2023-04-27T00:43:08.056Z,5.56
2023-04-27T00:46:12.283Z,5.47
2023-04-27T00:49:15.806Z,5.52
2023-04-27T00:52:18.699Z,5.49
2023-04-27T00:55:21.643Z,5.50
2023-04-27T00:58:25.637Z,5.45
2023-04-27T01:01:30.387Z,5.47
2023-04-27T01:04:33.222Z,5.46
2023-04-27T01:07:40.142Z,5.46
2023-04-27T01:10:42.765Z,5.42
2023-04-27T01:13:46.310Z,5.42
2023-04-27T01:16:49.106Z,5.41
2023-04-27T01:19:55.315Z,5.38
2023-04-27T01:22:59.040Z,5.33
2023-04-27T01:26:02.043Z,5.36
2023-04-27T01:29:04.534Z,5.32
2023-04-27T01:32:07.497Z,5.33
2023-04-27T01:35:11.109Z,5.31
2023-04-27T01:38:14.032Z,5.31
2023-04-27T01:41:19.674Z,5.26
2023-04-27T01:44:24.086Z,5.21
2023-04-27T01:47:27.651Z,5.18
2023-04-27T01:50:30.844Z,5.18
2023-04-27T01:53:34.196Z,5.27
2023-04-27T01:56:36.989Z,5.17
2023-04-27T01:59:39.780Z,5.12
2023-04-27T02:02:42.893Z,5.10
2023-04-27T02:05:47.145Z,5.03
2023-04-27T02:08:49.775Z,5.00
2023-04-27T02:11:52.630Z,4.95
2023-04-27T02:14:55.893Z,4.90
2023-04-27T02:17:59.713Z,4.90
2023-04-27T02:21:02.331Z,4.97
2023-04-27T02:24:05.652Z,4.96
2023-04-27T02:27:08.218Z,4.98
2023-04-27T02:30:12.268Z,4.95
2023-04-27T02:33:15.375Z,4.93
2023-04-27T02:36:18.675Z,4.94
2023-04-27T02:39:21.382Z,4.78
2023-04-27T02:42:24.221Z,4.85
2023-04-27T02:45:26.844Z,4.89
2023-04-27T02:48:31.103Z,4.89
2023-04-27T02:51:33.736Z,4.89
2023-04-27T02:54:36.695Z,4.90
2023-04-27T02:57:39.220Z,4.85
2023-04-27T03:00:43.086Z,4.81
2023-04-27T03:03:47.748Z,4.84
2023-04-27T03:06:50.972Z,4.74
2023-04-27T03:09:53.500Z,4.69
2023-04-27T03:12:57.654Z,4.68
2023-04-27T03:16:00.498Z,4.65
2023-04-27T03:19:03.933Z,4.64
2023-04-27T03:22:06.869Z,4.59
2023-04-27T03:25:11.172Z,4.48
2023-04-27T03:28:14.471Z,4.47
2023-04-27T03:31:17.466Z,4.50
2023-04-27T03:34:21.791Z,4.54
2023-04-27T03:37:24.796Z,4.59
2023-04-27T03:40:28.662Z,4.60
2023-04-27T03:43:31.531Z,4.60
2023-04-27T03:46:34.427Z,4.58
2023-04-27T03:49:38.233Z,4.54
2023-04-27T03:52:42.134Z,4.54
2023-04-27T03:55:47.213Z,4.51
2023-04-27T03:58:50.276Z,4.46
2023-04-27T04:01:53.361Z,4.50
2023-04-27T04:04:56.626Z,4.54
2023-04-27T04:07:59.744Z,4.52
2023-04-27T04:11:03.865Z,4.54
2023-04-27T04:14:06.683Z,4.58
2023-04-27T04:17:11.005Z,4.65
2023-04-27T04:20:16.276Z,4.71
2023-04-27T04:23:19.105Z,4.83
2023-04-27T04:26:23.525Z,4.92
2023-04-27T04:29:27.230Z,4.98
2023-04-27T04:32:31.437Z,4.98
2023-04-27T04:35:34.404Z,5.01
2023-04-27T04:38:37.139Z,4.97
2023-04-27T04:41:40.643Z,4.96
2023-04-27T04:44:43.431Z,4.97
2023-04-27T04:47:47.399Z,5.00
2023-04-27T04:50:50.119Z,4.99
2023-04-27T04:53:54.837Z,5.01
2023-04-27T04:56:59.240Z,5.03
2023-04-27T05:00:02.569Z,5.05
2023-04-27T05:03:07.743Z,5.77
2023-04-27T05:06:10.884Z,6.43
2023-04-27T05:09:13.761Z,6.81
2023-04-27T05:12:17.836Z,7.14
2023-04-27T05:15:20.992Z,7.44
2023-04-27T05:18:23.957Z,7.62
2023-04-27T05:21:26.437Z,7.75
2023-04-27T05:24:29.326Z,7.89
2023-04-27T05:27:32.094Z,7.95
2023-04-27T05:30:35.699Z,8.17
2023-04-27T05:33:38.289Z,8.29
2023-04-27T05:36:41.111Z,8.30
2023-04-27T05:39:43.822Z,8.12
2023-04-27T05:42:47.100Z,7.82
2023-04-27T05:45:49.827Z,7.58
2023-04-27T05:48:52.986Z,7.43
2023-04-27T05:51:55.740Z,7.41
2023-04-27T05:54:59.140Z,7.44
2023-04-27T05:58:08.374Z,7.44
2023-04-27T06:01:12.648Z,7.60
2023-04-27T06:04:15.866Z,7.69
2023-04-27T06:07:18.746Z,7.77
2023-04-27T06:10:21.717Z,7.86
2023-04-27T06:13:24.357Z,7.91
2023-04-27T06:16:27.356Z,8.04
2023-04-27T06:19:30.063Z,8.02
2023-04-27T06:22:33.518Z,8.10
2023-04-27T06:25:38.808Z,8.31
2023-04-27T06:28:41.672Z,8.50
2023-04-27T06:31:44.402Z,8.62
2023-04-27T06:34:47.649Z,8.91
2023-04-27T06:37:50.190Z,9.06
2023-04-27T06:40:53.318Z,9.14
2023-04-27T06:43:57.469Z,9.23
2023-04-27T06:47:01.548Z,9.36
2023-04-27T06:50:04.495Z,9.50
2023-04-27T06:53:08.298Z,9.65
2023-04-27T06:56:12.055Z,9.67
2023-04-27T06:59:15.317Z,9.73
2023-04-27T07:02:18.063Z,9.75
2023-04-27T07:05:21.179Z,9.84
2023-04-27T07:08:23.732Z,10.04
2023-04-27T07:11:26.583Z,10.06
2023-04-27T07:14:29.763Z,10.20
2023-04-27T07:17:35.439Z,10.50
2023-04-27T07:20:38.345Z,10.67
2023-04-27T07:23:41.677Z,10.85
2023-04-27T07:26:44.663Z,11.20
2023-04-27T07:29:48.206Z,11.27
2023-04-27T07:32:54.525Z,11.06
2023-04-27T07:35:58.127Z,11.36
2023-04-27T07:39:01.414Z,11.49
2023-04-27T07:42:04.497Z,11.61
2023-04-27T07:45:08.511Z,11.53
2023-04-27T07:48:11.475Z,11.67
2023-04-27T07:51:15.996Z,11.73
2023-04-27T07:54:18.825Z,11.75
2023-04-27T07:57:21.652Z,11.82
2023-04-27T08:00:27.852Z,12.25
2023-04-27T08:03:30.837Z,12.48
2023-04-27T08:06:34.340Z,12.86
2023-04-27T08:09:37.994Z,12.80
2023-04-27T08:12:40.714Z,13.04
2023-04-27T08:15:43.537Z,13.03
2023-04-27T08:18:46.270Z,12.90
2023-04-27T08:21:49.017Z,13.26
2023-04-27T08:24:51.645Z,13.57
2023-04-27T08:27:54.528Z,13.97
2023-04-27T08:30:57.049Z,14.34
2023-04-27T08:33:59.914Z,14.16
2023-04-27T08:37:04.347Z,13.65
2023-04-27T08:40:08.217Z,13.57
2023-04-27T08:43:11.256Z,13.30
2023-04-27T08:46:14.129Z,12.62
2023-04-27T08:49:17.587Z,12.41
2023-04-27T08:52:20.599Z,12.12
2023-04-27T08:55:23.872Z,12.03
2023-04-27T08:58:37.305Z,12.21
2023-04-27T09:01:49.806Z,12.18
2023-04-27T09:04:52.911Z,12.15
2023-04-27T09:08:05.719Z,12.20
2023-04-27T09:11:08.918Z,12.21
2023-04-27T09:14:19.903Z,12.30
2023-04-27T09:17:33.568Z,12.24
2023-04-27T09:20:43.287Z,12.25
2023-04-27T09:23:46.526Z,12.24
2023-04-27T09:26:50.025Z,13.11
2023-04-27T09:29:52.890Z,13.29
2023-04-27T09:32:57.795Z,13.76
2023-04-27T09:36:03.193Z,14.18
2023-04-27T09:39:06.107Z,13.29
2023-04-27T09:42:09.360Z,13.40
2023-04-27T09:45:12.343Z,13.19
2023-04-27T09:48:15.618Z,13.13
2023-04-27T09:51:18.299Z,12.97
2023-04-27T09:54:22.825Z,13.05
2023-04-27T09:57:32.301Z,12.94
2023-04-27T10:01:08.908Z,12.75
2023-04-27T10:04:36.767Z,13.10
2023-04-27T10:07:41.086Z,13.07
2023-04-27T10:10:48.303Z,13.79
2023-04-27T10:13:54.458Z,15.10
2023-04-27T10:16:59.032Z,15.80
2023-04-27T10:20:04.035Z,16.56
2023-04-27T10:23:07.131Z,16.32
2023-04-27T10:26:09.680Z,17.05
2023-04-27T10:29:16.331Z,16.44
2023-04-27T10:32:21.472Z,15.70
2023-04-27T10:35:33.615Z,15.59
2023-04-27T10:38:40.541Z,15.23
2023-04-27T10:41:51.756Z,15.65
2023-04-27T10:44:57.167Z,16.82
2023-04-27T10:48:01.324Z,16.98
2023-04-27T10:51:04.413Z,15.98
2023-04-27T10:54:07.171Z,15.17
2023-04-27T10:57:10.914Z,14.97
2023-04-27T11:00:16.522Z,15.14
2023-04-27T11:03:22.117Z,15.26
2023-04-27T11:06:25.237Z,15.39
2023-04-27T11:09:28.244Z,15.22
2023-04-27T11:12:32.194Z,15.39
2023-04-27T11:15:55.697Z,16.62
2023-04-27T11:19:05.284Z,15.84
2023-04-27T11:22:07.879Z,15.63
2023-04-27T11:25:11.224Z,15.41
2023-04-27T11:28:20.419Z,16.14
2023-04-27T11:31:23.714Z,16.85
2023-04-27T11:34:26.580Z,17.51
2023-04-27T11:37:29.793Z,17.92
2023-04-27T11:40:34.511Z,18.50
2023-04-27T11:43:42.495Z,18.05
2023-04-27T11:46:47.472Z,17.03
2023-04-27T11:49:51.409Z,16.71
2023-04-27T11:52:54.227Z,17.53
2023-04-27T11:56:00.094Z,18.03
2023-04-27T11:59:03.173Z,18.23
2023-04-27T12:02:06.198Z,18.71
2023-04-27T12:05:10.204Z,19.01
2023-04-27T12:08:13.015Z,19.25
2023-04-27T12:11:15.885Z,18.76
2023-04-27T12:14:19.905Z,19.15
2023-04-27T12:17:23.357Z,19.77
2023-04-27T12:20:26.160Z,19.75
2023-04-27T12:23:29.389Z,19.70
2023-04-27T12:26:31.962Z,19.93
2023-04-27T12:29:35.299Z,20.01
2023-04-27T12:32:37.990Z,18.83
2023-04-27T12:35:41.342Z,19.15
2023-04-27T12:38:44.144Z,19.14
2023-04-27T12:41:48.076Z,19.34
2023-04-27T12:44:51.995Z,18.52
2023-04-27T12:48:03.466Z,19.26
2023-04-27T12:51:07.105Z,19.77
2023-04-27T12:54:11.126Z,19.37
2023-04-27T12:57:13.800Z,18.46
2023-04-27T13:00:17.429Z,17.96
2023-04-27T13:03:20.122Z,17.36
2023-04-27T13:06:23.532Z,17.38
2023-04-27T13:09:26.251Z,17.58
2023-04-27T13:12:29.334Z,18.17
2023-04-27T13:15:31.898Z,18.79
2023-04-27T13:18:35.593Z,18.40
2023-04-27T13:21:38.420Z,17.85
2023-04-27T13:24:42.320Z,17.47
2023-04-27T13:27:44.847Z,17.68
2023-04-27T13:30:48.915Z,18.28
2023-04-27T13:33:51.500Z,18.53
2023-04-27T13:36:54.593Z,18.46
2023-04-27T13:39:57.117Z,18.10
2023-04-27T13:43:00.047Z,17.97
2023-04-27T13:46:03.162Z,17.61
2023-04-27T13:49:06.541Z,16.90
2023-04-27T13:52:09.969Z,16.63
2023-04-27T13:55:13.401Z,16.31
2023-04-27T13:58:16.204Z,16.51
2023-04-27T14:01:20.143Z,17.23
2023-04-27T14:04:23.202Z,17.57
2023-04-27T14:07:26.026Z,17.70
2023-04-27T14:10:28.923Z,17.74
2023-04-27T14:13:31.579Z,17.93
2023-04-27T14:16:34.454Z,17.91
2023-04-27T14:19:37.363Z,17.39
2023-04-27T14:22:40.493Z,17.17
2023-04-27T14:25:42.927Z,16.45
2023-04-27T14:28:46.171Z,16.20
2023-04-27T14:31:48.868Z,15.94
2023-04-27T14:34:52.159Z,15.84
2023-04-27T14:37:56.783Z,15.61
2023-04-27T14:40:59.638Z,15.27
2023-04-27T14:44:02.207Z,15.45
2023-04-27T14:47:06.406Z,15.28
2023-04-27T14:50:09.316Z,15.14
2023-04-27T14:53:14.251Z,15.05
2023-04-27T14:56:16.952Z,14.94
2023-04-27T14:59:20.249Z,15.16
2023-04-27T15:02:23.298Z,15.20
2023-04-27T15:05:26.297Z,15.22
2023-04-27T15:08:30.669Z,15.43
2023-04-27T15:11:35.400Z,15.46
2023-04-27T15:14:37.940Z,15.19
2023-04-27T15:17:41.703Z,14.96
2023-04-27T15:20:44.731Z,14.80
2023-04-27T15:23:48.046Z,14.60
2023-04-27T15:26:50.934Z,14.59
2023-04-27T15:29:54.549Z,14.57
2023-04-27T15:32:57.197Z,14.71
2023-04-27T15:36:00.249Z,14.77
2023-04-27T15:39:02.814Z,14.84
2023-04-27T15:42:05.728Z,14.99
2023-04-27T15:45:10.111Z,14.81
2023-04-27T15:48:13.764Z,14.93
2023-04-27T15:51:16.820Z,14.96
2023-04-27T15:54:19.664Z,14.91
2023-04-27T15:57:22.264Z,14.91
2023-04-27T16:00:25.475Z,14.61
2023-04-27T16:03:28.560Z,14.58
2023-04-27T16:06:33.188Z,14.63
2023-04-27T16:09:36.811Z,14.49
2023-04-27T16:12:40.486Z,14.48
2023-04-27T16:15:43.269Z,14.37
2023-04-27T16:18:46.296Z,14.24
2023-04-27T16:21:49.645Z,14.23
2023-04-27T16:24:52.271Z,14.26
2023-04-27T16:27:55.412Z,14.11
2023-04-27T16:30:58.753Z,14.02
2023-04-27T16:34:01.694Z,13.90
2023-04-27T16:37:04.467Z,13.79
2023-04-27T16:40:08.427Z,13.82
2023-04-27T16:43:11.311Z,13.70
2023-04-27T16:46:15.359Z,13.62
2023-04-27T16:49:18.134Z,13.52
2023-04-27T16:52:20.982Z,13.34
2023-04-27T16:55:23.583Z,13.20
2023-04-27T16:58:26.655Z,13.08
2023-04-27T17:01:30.196Z,13.03
2023-04-27T17:04:35.407Z,12.99
2023-04-27T17:07:38.193Z,12.96
2023-04-27T17:10:41.603Z,12.91
2023-04-27T17:13:44.245Z,12.90
2023-04-27T17:16:47.837Z,12.83
2023-04-27T17:19:50.454Z,12.78
2023-04-27T17:22:53.438Z,12.75
2023-04-27T17:25:56.144Z,12.54
2023-04-27T17:29:01.346Z,12.53
2023-04-27T17:32:04.742Z,12.51
2023-04-27T17:35:08.094Z,12.44
2023-04-27T17:38:11.760Z,12.32
2023-04-27T17:41:14.648Z,12.15
2023-04-27T17:44:17.468Z,12.10
2023-04-27T17:47:22.277Z,12.04
2023-04-27T17:50:26.169Z,11.90
2023-04-27T17:53:29.477Z,11.76
2023-04-27T17:56:32.442Z,11.69
2023-04-27T17:59:36.348Z,11.63
2023-04-27T18:02:39.464Z,11.57
2023-04-27T18:05:42.483Z,11.47
2023-04-27T18:08:45.447Z,11.37
2023-04-27T18:11:48.584Z,11.31
2023-04-27T18:14:52.004Z,11.20
2023-04-27T18:17:55.311Z,11.61
2023-04-27T18:20:58.128Z,11.48
2023-04-27T18:24:01.252Z,11.35
2023-04-27T18:27:04.171Z,11.22
2023-04-27T18:30:10.378Z,11.09
2023-04-27T18:33:13.227Z,11.02
2023-04-27T18:36:16.325Z,10.93
2023-04-27T18:39:20.387Z,10.86
2023-04-27T18:42:23.793Z,10.80
2023-04-27T18:45:26.730Z,10.74
2023-04-27T18:48:29.792Z,10.72
2023-04-27T18:51:32.520Z,10.64
2023-04-27T18:54:35.360Z,10.57
2023-04-27T18:57:38.269Z,10.53
2023-04-27T19:00:41.634Z,10.53
2023-04-27T19:03:45.091Z,10.47
2023-04-27T19:06:50.027Z,10.39
2023-04-27T19:09:55.038Z,10.34
2023-04-27T19:12:58.632Z,10.28
2023-04-27T19:16:01.765Z,10.20
2023-04-27T19:19:04.685Z,10.08
2023-04-27T19:22:08.157Z,9.98
2023-04-27T19:25:11.288Z,9.92
2023-04-27T19:28:16.417Z,9.86
2023-04-27T19:31:19.670Z,9.81
2023-04-27T19:34:22.547Z,9.80
2023-04-27T19:37:27.501Z,9.74
2023-04-27T19:40:30.803Z,9.65
2023-04-27T19:43:34.179Z,9.60
2023-04-27T19:46:37.036Z,9.57
2023-04-27T19:49:40.310Z,9.50
2023-04-27T19:52:43.218Z,9.45
2023-04-27T19:55:46.081Z,9.40
2023-04-27T19:58:48.843Z,9.38
2023-04-27T20:01:51.963Z,9.40
2023-04-27T20:04:55.257Z,9.37
2023-04-27T20:07:58.419Z,9.32
2023-04-27T20:11:01.696Z,9.30
2023-04-27T20:14:04.627Z,9.27
2023-04-27T20:17:07.840Z,9.25
2023-04-27T20:20:11.460Z,9.20
2023-04-27T20:23:14.805Z,9.15
2023-04-27T20:26:17.803Z,9.08
2023-04-27T20:29:20.925Z,9.06
2023-04-27T20:32:23.548Z,8.98
2023-04-27T20:35:27.785Z,8.87
2023-04-27T20:38:30.615Z,8.97
2023-04-27T20:41:34.242Z,8.97
2023-04-27T20:44:39.068Z,8.99
2023-04-27T20:47:42.109Z,9.02
2023-04-27T20:50:45.729Z,9.03
2023-04-27T20:53:48.575Z,9.01
2023-04-27T20:56:57.824Z,9.06
2023-04-27T21:00:00.898Z,9.04
2023-04-27T21:03:04.233Z,9.03
2023-04-27T21:06:07.392Z,8.99
2023-04-27T21:09:10.395Z,8.98
2023-04-27T21:12:14.842Z,8.98
2023-04-27T21:15:17.481Z,8.94
2023-04-27T21:18:29.803Z,8.86
2023-04-27T21:21:33.218Z,8.79
2023-04-27T21:24:36.327Z,8.78
2023-04-27T21:27:41.871Z,8.69
2023-04-27T21:30:45.157Z,8.65
2023-04-27T21:33:47.940Z,8.59
2023-04-27T21:36:50.934Z,8.54
2023-04-27T21:39:53.544Z,8.51
2023-04-27T21:42:56.761Z,8.43
2023-04-27T21:45:59.764Z,8.38
2023-04-27T21:49:03.400Z,8.34
2023-04-27T21:52:06.105Z,8.28
2023-04-27T21:55:10.065Z,8.21
2023-04-27T21:58:12.767Z,8.15
2023-04-27T22:01:15.718Z,8.09
2023-04-27T22:04:18.993Z,8.04
2023-04-27T22:07:21.997Z,8.01
2023-04-27T22:10:25.030Z,7.93
2023-04-27T22:13:27.659Z,7.88
2023-04-27T22:16:30.592Z,7.79
2023-04-27T22:19:33.958Z,7.78
2023-04-27T22:22:37.693Z,7.72
2023-04-27T22:25:42.834Z,7.68
2023-04-27T22:28:46.027Z,7.66
2023-04-27T22:31:48.708Z,7.59
2023-04-27T22:34:51.639Z,7.54
2023-04-27T22:37:56.963Z,7.53
2023-04-27T22:40:59.882Z,7.52
2023-04-27T22:44:04.484Z,7.48
2023-04-27T22:47:07.474Z,7.47
2023-04-27T22:50:11.318Z,7.45
2023-04-27T22:53:14.220Z,7.44
2023-04-27T22:56:16.745Z,7.39
2023-04-27T22:59:25.678Z,7.35
2023-04-27T23:02:28.829Z,7.28
2023-04-27T23:05:32.630Z,7.27
2023-04-27T23:08:37.267Z,7.14
2023-04-27T23:11:40.821Z,7.04
2023-04-27T23:14:43.735Z,7.01
2023-04-27T23:17:46.781Z,7.03
2023-04-27T23:20:54.685Z,7.03
2023-04-27T23:23:57.636Z,7.09
2023-04-27T23:27:01.268Z,7.06
2023-04-27T23:30:04.970Z,7.02
2023-04-27T23:33:07.644Z,7.01
2023-04-27T23:36:10.882Z,6.93
2023-04-27T23:39:13.871Z,6.89
2023-04-27T23:42:17.197Z,6.83
2023-04-27T23:45:20.921Z,6.81
2023-04-27T23:48:23.821Z,6.77
2023-04-27T23:51:27.227Z,6.74
2023-04-27T23:54:33.183Z,6.82
2023-04-27T23:57:35.716Z,6.83
